createdAt,value
2019-05-13T00:01:10.516Z,4.05
2019-05-13T00:02:54.368Z,3.95
2019-05-13T00:04:35.623Z,4.21
2019-05-13T00:08:03.423Z,3.72
2019-05-13T00:09:45.863Z,3.52
2019-05-13T00:11:27.306Z,3.59
2019-05-13T00:13:07.823Z,3.88
2019-05-13T00:14:47.385Z,3.71
2019-05-13T00:16:26.803Z,3.79
2019-05-13T00:18:07.335Z,3.85
2019-05-13T00:19:47.619Z,3.99
2019-05-13T00:21:27.075Z,3.69
2019-05-13T00:23:07.374Z,3.84
2019-05-13T00:24:47.682Z,3.91
2019-05-13T00:26:27.784Z,3.9
2019-05-13T00:28:07.635Z,3.82
2019-05-13T00:29:47.145Z,3.57
2019-05-13T00:31:27.523Z,3.68
2019-05-13T00:33:07.320Z,3.68
2019-05-13T00:34:47.878Z,3.79
2019-05-13T00:36:27.712Z,3.61
2019-05-13T00:38:07.500Z,3.63
2019-05-13T00:39:47.557Z,3.49
2019-05-13T00:43:07.176Z,3.66
2019-05-13T00:44:47.668Z,3.46
2019-05-13T00:46:27.146Z,3.48
2019-05-13T00:48:17.670Z,3.72
2019-05-13T00:49:57.435Z,3.4
2019-05-13T00:51:37.175Z,3.27
2019-05-13T00:53:16.750Z,3.53
2019-05-13T00:54:56.854Z,3.52
2019-05-13T00:56:37.804Z,3.59
2019-05-13T00:58:17.016Z,3.45
2019-05-13T00:59:57.385Z,3.57
2019-05-13T01:01:36.895Z,3.51
2019-05-13T01:03:17.379Z,3.68
2019-05-13T01:04:57.048Z,3.68
2019-05-13T01:06:37.591Z,3.68
2019-05-13T01:08:17.939Z,3.7
2019-05-13T01:09:57.453Z,3.78
2019-05-13T01:11:37.601Z,3.48
2019-05-13T01:13:17.154Z,3.68
2019-05-13T01:14:56.843Z,3.78
2019-05-13T01:16:37.463Z,3.56
2019-05-13T01:18:17.711Z,3.68
2019-05-13T01:19:57.125Z,3.9
2019-05-13T01:21:37.790Z,3.58
2019-05-13T01:23:17.674Z,3.89
2019-05-13T01:24:57.480Z,3.65
2019-05-13T01:26:37.020Z,3.76
2019-05-13T01:28:16.888Z,3.84
2019-05-13T01:29:56.756Z,4.08
2019-05-13T01:31:37.680Z,3.72
2019-05-13T01:33:17.864Z,4.02
2019-05-13T01:34:57.284Z,4
2019-05-13T01:36:37.386Z,3.89
2019-05-13T01:38:16.952Z,3.9
2019-05-13T01:39:57.400Z,3.96
2019-05-13T01:41:36.966Z,3.9
2019-05-13T01:43:17.846Z,4.09
2019-05-13T01:44:57.248Z,3.84
2019-05-13T01:46:37.991Z,3.91
2019-05-13T01:48:17.611Z,3.93
2019-05-13T01:49:57.569Z,3.98
2019-05-13T01:51:37.060Z,4.07
2019-05-13T01:53:37.020Z,4.2
2019-05-13T01:55:17.976Z,4.21
2019-05-13T01:56:57.434Z,4.11
2019-05-13T01:58:37.356Z,4.09
2019-05-13T02:00:17.564Z,4.15
2019-05-13T02:01:57.407Z,4.15
2019-05-13T02:03:37.163Z,4.36
2019-05-13T02:05:17.435Z,4.21
2019-05-13T02:06:57.663Z,4.37
2019-05-13T02:10:17.676Z,4.38
2019-05-13T02:13:37.743Z,4.34
2019-05-13T02:15:18.004Z,4.38
2019-05-13T02:16:57.422Z,4.19
2019-05-13T02:18:37.579Z,4.29
2019-05-13T02:21:57.718Z,4.52
2019-05-13T02:23:37.423Z,4.37
2019-05-13T02:25:17.379Z,4.52
2019-05-13T02:26:57.757Z,4.31
2019-05-13T02:28:37.190Z,4.09
2019-05-13T02:30:19.459Z,4.19
2019-05-13T02:32:02.677Z,4.2
2019-05-13T02:33:45.619Z,4.08
2019-05-13T02:35:26.419Z,4.22
2019-05-13T02:37:06.668Z,4.28
2019-05-13T02:38:46.185Z,4.16
2019-05-13T02:40:26.080Z,4.29
2019-05-13T02:45:36.469Z,4.23
2019-05-13T02:47:16.024Z,4.36
2019-05-13T02:48:56.217Z,4.14
2019-05-13T02:50:37.167Z,4.3
2019-05-13T02:52:16.912Z,4.25
2019-05-13T02:53:56.342Z,4.12
2019-05-13T02:57:17.377Z,4.32
2019-05-13T02:58:56.869Z,4.19
2019-05-13T03:00:36.330Z,4.18
2019-05-13T03:02:16.042Z,4.03
2019-05-13T03:03:56.269Z,4.23
2019-05-13T03:05:35.729Z,4.29
2019-05-13T03:07:15.395Z,4.25
2019-05-13T03:08:57.939Z,4.38
2019-05-13T03:10:43.339Z,4.51
2019-05-13T03:12:26.316Z,4.34
2019-05-13T03:14:06.991Z,4.43
2019-05-13T03:15:46.429Z,4.33
2019-05-13T03:17:25.834Z,4.24
2019-05-13T03:19:06.256Z,4.33
2019-05-13T03:20:46.527Z,4.34
2019-05-13T03:22:26.117Z,4.44
2019-05-13T03:24:06.904Z,4.44
2019-05-13T03:25:46.343Z,4.35
2019-05-13T03:27:28.668Z,4.36
2019-05-13T03:29:23.886Z,4.7
2019-05-13T03:31:15.795Z,4.44
2019-05-13T03:33:18.486Z,4.56
2019-05-13T03:35:18.016Z,4.46
2019-05-13T03:39:16.189Z,4.52
2019-05-13T03:41:05.008Z,4.61
2019-05-13T03:42:45.827Z,4.41
2019-05-13T03:44:27.146Z,4.35
2019-05-13T03:47:54.338Z,4.92
2019-05-13T03:49:36.012Z,4.58
2019-05-13T03:51:17.060Z,4.63
2019-05-13T03:53:02.899Z,4.54
2019-05-13T03:54:45.431Z,4.52
2019-05-13T03:56:26.968Z,4.61
2019-05-13T03:58:06.778Z,4.54
2019-05-13T03:59:47.101Z,4.62
2019-05-13T04:01:26.545Z,4.45
2019-05-13T04:03:06.728Z,4.6
2019-05-13T04:04:46.232Z,4.78
2019-05-13T04:06:26.979Z,4.47
2019-05-13T04:08:06.866Z,4.72
2019-05-13T04:09:46.455Z,4.56
2019-05-13T04:11:26.142Z,4.66
2019-05-13T04:13:07.331Z,4.73
2019-05-13T04:14:52.762Z,4.47
2019-05-13T04:16:35.561Z,4.64
2019-05-13T04:18:15.970Z,4.79
2019-05-13T04:19:56.295Z,4.83
2019-05-13T04:23:16.200Z,4.85
2019-05-13T04:24:56.521Z,4.58
2019-05-13T04:26:36.053Z,4.7
2019-05-13T04:28:16.774Z,4.76
2019-05-13T04:29:56.386Z,4.67
2019-05-13T04:31:36.747Z,4.61
2019-05-13T04:34:58.782Z,5.02
2019-05-13T04:36:44.618Z,5.28
2019-05-13T04:38:26.026Z,5.28
2019-05-13T04:40:06.686Z,5.78
2019-05-13T04:41:46.450Z,5.4
2019-05-13T04:43:30.360Z,5.62
2019-05-13T04:45:25.871Z,5.86
2019-05-13T04:48:56.280Z,5.88
2019-05-13T04:50:36.512Z,5.43
2019-05-13T04:52:17.104Z,5.78
2019-05-13T04:54:02.773Z,5.59
2019-05-13T04:55:45.971Z,5.37
2019-05-13T04:57:26.147Z,4.84
2019-05-13T04:59:06.599Z,5.03
2019-05-13T05:01:04.573Z,4.92
2019-05-13T05:02:58.798Z,5.05
2019-05-13T05:04:45.232Z,4.79
2019-05-13T05:06:26.117Z,4.64
2019-05-13T05:08:15.354Z,4.63
2019-05-13T05:12:26.312Z,4.82
2019-05-13T05:14:06.143Z,5.18
2019-05-13T05:15:45.560Z,7.93
2019-05-13T05:17:25.962Z,5.77
2019-05-13T05:19:05.710Z,5.67
2019-05-13T05:20:48.134Z,4.76
2019-05-13T05:22:31.429Z,4.85
2019-05-13T05:24:13.164Z,4.84
2019-05-13T05:25:55.425Z,4.72
2019-05-13T05:27:34.917Z,4.76
2019-05-13T05:29:14.773Z,10.22
2019-05-13T05:32:43.888Z,4.76
2019-05-13T05:34:24.571Z,4.78
2019-05-13T05:36:05.168Z,4.67
2019-05-13T05:37:44.999Z,4.83
2019-05-13T05:39:26.075Z,4.75
2019-05-13T05:41:05.474Z,4.77
2019-05-13T05:42:44.931Z,4.82
2019-05-13T05:44:24.750Z,4.85
2019-05-13T05:46:04.447Z,4.9
2019-05-13T05:47:45.245Z,4.88
2019-05-13T05:49:24.689Z,4.74
2019-05-13T05:51:05.391Z,4.89
2019-05-13T05:52:45.437Z,5.03
2019-05-13T05:54:25.338Z,4.91
2019-05-13T05:56:05.730Z,5
2019-05-13T05:57:45.260Z,5.01
2019-05-13T05:59:25.201Z,5.18
2019-05-13T06:01:05.908Z,5.19
2019-05-13T06:02:45.978Z,4.96
2019-05-13T06:04:25.528Z,4.99
2019-05-13T06:07:47.649Z,4.91
2019-05-13T06:09:31.925Z,4.83
2019-05-13T06:11:13.478Z,5.04
2019-05-13T06:12:54.029Z,4.76
2019-05-13T06:14:36.105Z,4.75
2019-05-13T06:17:57.524Z,5.13
2019-05-13T06:19:37.166Z,4.98
2019-05-13T06:21:16.959Z,4.6
2019-05-13T06:22:56.558Z,4.92
2019-05-13T06:24:36.254Z,4.88
2019-05-13T06:26:16.136Z,4.78
2019-05-13T06:27:55.806Z,4.83
2019-05-13T06:29:35.537Z,4.73
2019-05-13T06:31:16.096Z,5.12
2019-05-13T06:34:54.158Z,4.54
2019-05-13T06:36:35.131Z,4.42
2019-05-13T06:38:15.330Z,4.43
2019-05-13T06:39:55.155Z,4.64
2019-05-13T06:41:36.020Z,4.34
2019-05-13T06:43:15.706Z,4.82
2019-05-13T06:44:55.465Z,4.48
2019-05-13T06:46:35.820Z,4.6
2019-05-13T06:48:15.379Z,4.45
2019-05-13T06:49:55.124Z,4.67
2019-05-13T06:51:34.943Z,4.68
2019-05-13T06:53:16.306Z,4.48
2019-05-13T06:54:56.088Z,4.46
2019-05-13T06:56:35.712Z,4.28
2019-05-13T06:58:15.371Z,4.33
2019-05-13T06:59:55.905Z,4.31
2019-05-13T07:01:35.940Z,4.01
2019-05-13T07:03:16.302Z,3.64
2019-05-13T07:04:56.028Z,3.91
2019-05-13T07:06:36.033Z,3.74
2019-05-13T07:08:16.106Z,4.12
2019-05-13T07:09:55.802Z,3.57
2019-05-13T07:11:34.884Z,3.71
2019-05-13T07:13:23.564Z,3.95
2019-05-13T07:15:05.822Z,3.92
2019-05-13T07:18:28.365Z,3.96
2019-05-13T07:20:13.427Z,3.81
2019-05-13T07:21:55.542Z,4.03
2019-05-13T07:23:35.259Z,4.09
2019-05-13T07:26:55.612Z,4
2019-05-13T07:28:35.777Z,3.92
2019-05-13T07:30:22.536Z,4.16
2019-05-13T07:32:03.543Z,3.95
2019-05-13T07:33:46.968Z,3.8
2019-05-13T07:35:30.327Z,3.97
2019-05-13T07:37:15.985Z,4.01
2019-05-13T07:38:55.498Z,3.78
2019-05-13T07:40:35.535Z,4.02
2019-05-13T07:42:15.851Z,4.15
2019-05-13T07:43:55.276Z,3.89
2019-05-13T07:45:35.023Z,4.13
2019-05-13T07:47:17.571Z,3.9
2019-05-13T07:48:56.918Z,3.39
2019-05-13T07:52:43.927Z,3.25
2019-05-13T07:54:25.430Z,3.23
2019-05-13T07:57:50.897Z,3.22
2019-05-13T08:01:22.036Z,3.01
2019-05-13T08:03:03.386Z,2.94
2019-05-13T08:04:48.774Z,2.98
2019-05-13T08:06:32.291Z,2.55
2019-05-13T08:08:14.872Z,2.33
2019-05-13T08:10:03.451Z,2.42
2019-05-13T08:12:14.224Z,2.45
2019-05-13T08:14:01.735Z,2.75
2019-05-13T08:15:43.405Z,3.01
2019-05-13T08:17:25.690Z,3.61
2019-05-13T08:19:05.358Z,2.36
2019-05-13T08:20:45.520Z,2.6
2019-05-13T08:22:25.051Z,2.72
2019-05-13T08:24:06.092Z,2.73
2019-05-13T08:25:46.009Z,2.55
2019-05-13T08:27:36.890Z,2.28
2019-05-13T08:29:16.463Z,2.53
2019-05-13T08:30:55.988Z,2.54
2019-05-13T08:32:35.405Z,2.43
2019-05-13T08:34:15.427Z,2.24
2019-05-13T08:36:01.568Z,2.34
2019-05-13T08:37:43.093Z,2.2
2019-05-13T08:39:33.211Z,2.49
2019-05-13T08:41:32.181Z,2.4
2019-05-13T08:43:13.756Z,2.4
2019-05-13T08:44:55.764Z,2.51
2019-05-13T08:46:35.695Z,2.17
2019-05-13T08:48:16.221Z,2.65
2019-05-13T08:49:55.738Z,2.4
2019-05-13T08:51:43.372Z,2.39
2019-05-13T08:53:24.620Z,2.47
2019-05-13T08:55:05.445Z,2.51
2019-05-13T08:56:45.121Z,2.45
2019-05-13T08:58:25.108Z,2.41
2019-05-13T09:00:08.730Z,2.31
2019-05-13T09:01:53.781Z,2.46
2019-05-13T09:03:36.020Z,2.48
2019-05-13T09:05:15.650Z,2.5
2019-05-13T09:06:55.952Z,2.42
2019-05-13T09:08:35.570Z,2.48
2019-05-13T09:10:15.793Z,2.77
2019-05-13T09:11:55.207Z,2.58
2019-05-13T09:13:36.454Z,2.5
2019-05-13T09:15:16.011Z,3.04
2019-05-13T09:16:56.090Z,2.49
2019-05-13T09:18:35.781Z,2.56
2019-05-13T09:20:15.389Z,2.76
2019-05-13T09:21:55.941Z,2.89
2019-05-13T09:23:35.493Z,2.56
2019-05-13T09:25:15.909Z,2.59
2019-05-13T09:26:56.262Z,2.57
2019-05-13T09:28:35.928Z,2.85
2019-05-13T09:30:15.548Z,2.55
2019-05-13T09:31:55.481Z,2.73
2019-05-13T09:33:36.105Z,2.86
2019-05-13T09:35:15.697Z,2.61
2019-05-13T09:36:55.558Z,2.52
2019-05-13T09:38:35.427Z,2.48
2019-05-13T09:40:14.866Z,2.58
2019-05-13T09:41:55.575Z,2.55
2019-05-13T09:43:34.988Z,2.63
2019-05-13T09:45:15.591Z,2.55
2019-05-13T09:46:55.126Z,2.56
2019-05-13T09:48:35.490Z,2.35
2019-05-13T09:50:37.563Z,2.4
2019-05-13T09:52:26.058Z,2.38
2019-05-13T09:54:05.521Z,2.37
2019-05-13T09:55:45.171Z,2.47
2019-05-13T09:57:24.799Z,2.73
2019-05-13T09:59:05.134Z,2.45
2019-05-13T10:00:45.604Z,2.35
2019-05-13T10:02:25.277Z,2.36
2019-05-13T10:04:06.512Z,2.27
2019-05-13T10:05:46.066Z,2.42
2019-05-13T10:09:15.828Z,2.24
2019-05-13T10:10:56.240Z,2.87
2019-05-13T10:12:35.655Z,2.22
2019-05-13T10:14:15.221Z,2.31
2019-05-13T10:15:54.692Z,2.14
2019-05-13T10:17:35.175Z,2.13
2019-05-13T10:21:02.151Z,2.3
2019-05-13T10:22:43.515Z,2.05
2019-05-13T10:24:25.474Z,2.11
2019-05-13T10:26:06.764Z,2.23
2019-05-13T10:27:45.766Z,2.16
2019-05-13T10:29:25.870Z,2.25
2019-05-13T10:31:06.064Z,2.29
2019-05-13T10:32:45.998Z,2.21
2019-05-13T10:34:26.525Z,2.07
2019-05-13T10:36:07.199Z,2.11
2019-05-13T10:37:49.073Z,2.66
2019-05-13T10:39:31.220Z,2.34
2019-05-13T10:41:13.578Z,2.42
2019-05-13T10:42:55.760Z,3.69
2019-05-13T10:44:35.106Z,3.02
2019-05-13T10:46:16.158Z,2.06
2019-05-13T10:47:55.726Z,2.06
2019-05-13T10:49:36.050Z,1.93
2019-05-13T10:54:54.565Z,1.98
2019-05-13T10:56:36.212Z,1.94
2019-05-13T10:58:15.789Z,2.11
2019-05-13T11:00:03.234Z,2.29
2019-05-13T11:01:46.154Z,2.23
2019-05-13T11:03:26.474Z,2.02
2019-05-13T11:06:46.454Z,2
2019-05-13T11:08:26.158Z,2.03
2019-05-13T11:10:06.620Z,2.01
2019-05-13T11:11:46.143Z,1.86
2019-05-13T11:13:45.757Z,1.9
2019-05-13T11:15:48.200Z,1.87
2019-05-13T11:17:36.608Z,1.87
2019-05-13T11:19:16.542Z,1.82
2019-05-13T11:20:56.215Z,2.12
2019-05-13T11:22:36.194Z,2.05
2019-05-13T11:24:16.140Z,1.82
2019-05-13T11:25:55.991Z,2.03
2019-05-13T11:27:35.885Z,1.76
2019-05-13T11:29:15.539Z,1.88
2019-05-13T11:31:03.169Z,3.56
2019-05-13T11:32:45.885Z,2.07
2019-05-13T11:34:25.746Z,1.84
2019-05-13T11:37:55.514Z,1.99
2019-05-13T11:39:35.981Z,1.96
2019-05-13T11:41:15.990Z,1.98
2019-05-13T11:42:56.148Z,1.84
2019-05-13T11:44:35.905Z,1.96
2019-05-13T11:46:15.775Z,1.81
2019-05-13T11:47:55.690Z,1.82
2019-05-13T11:49:35.175Z,1.91
2019-05-13T11:51:16.415Z,1.97
2019-05-13T11:52:56.088Z,1.91
2019-05-13T11:54:35.574Z,1.82
2019-05-13T11:56:15.927Z,1.91
2019-05-13T11:59:55.505Z,1.88
2019-05-13T12:01:36.892Z,1.89
2019-05-13T12:03:16.417Z,1.98
2019-05-13T12:04:57.078Z,1.89
2019-05-13T12:06:54.379Z,1.95
2019-05-13T12:08:37.574Z,1.95
2019-05-13T12:10:17.004Z,1.99
2019-05-13T12:11:56.588Z,1.98
2019-05-13T12:13:36.413Z,4.75
2019-05-13T12:17:18.634Z,1.92
2019-05-13T12:19:03.348Z,1.9
2019-05-13T12:20:45.886Z,1.9
2019-05-13T12:22:26.304Z,1.92
2019-05-13T12:24:13.655Z,2.02
2019-05-13T12:25:56.302Z,1.78
2019-05-13T12:27:36.151Z,1.86
2019-05-13T12:31:04.870Z,1.89
2019-05-13T12:32:47.063Z,1.92
2019-05-13T12:34:26.583Z,1.91
2019-05-13T12:36:06.230Z,1.75
2019-05-13T12:37:45.674Z,1.94
2019-05-13T12:41:12.760Z,1.96
2019-05-13T12:42:55.821Z,1.91
2019-05-13T12:44:58.009Z,1.88
2019-05-13T12:46:56.552Z,1.88
2019-05-13T12:48:36.298Z,1.97
2019-05-13T12:50:16.944Z,2.09
2019-05-13T12:52:06.425Z,2.06
2019-05-13T12:53:46.277Z,1.85
2019-05-13T12:55:25.680Z,1.98
2019-05-13T12:57:16.045Z,2
2019-05-13T12:58:55.900Z,2.15
2019-05-13T13:00:38.396Z,2.14
2019-05-13T13:02:25.481Z,2.11
2019-05-13T13:04:05.766Z,2.22
2019-05-13T13:05:46.592Z,2.12
2019-05-13T13:07:26.506Z,2.24
2019-05-13T13:09:06.114Z,2.02
2019-05-13T13:10:45.812Z,2.09
2019-05-13T13:12:38.155Z,2.14
2019-05-13T13:14:21.564Z,2.15
2019-05-13T13:16:05.229Z,2.1
2019-05-13T13:17:45.391Z,2.1
2019-05-13T13:19:25.409Z,2.11
2019-05-13T13:21:15.900Z,2.19
2019-05-13T13:22:55.465Z,2.18
2019-05-13T13:24:35.196Z,2.36
2019-05-13T13:26:21.609Z,2.16
2019-05-13T13:28:17.232Z,2.23
2019-05-13T13:30:10.224Z,2.4
2019-05-13T13:31:54.024Z,2.34
2019-05-13T13:33:37.641Z,2.17
2019-05-13T13:35:17.765Z,2.46
2019-05-13T13:36:59.734Z,2.4
2019-05-13T13:38:47.379Z,2.25
2019-05-13T13:42:35.610Z,2.35
2019-05-13T13:44:28.026Z,2.29
2019-05-13T13:48:34.380Z,2.32
2019-05-13T13:50:15.374Z,2.18
2019-05-13T13:51:54.870Z,2.19
2019-05-13T13:53:36.167Z,2.24
2019-05-13T13:55:25.473Z,2.21
2019-05-13T13:58:47.266Z,2.42
2019-05-13T14:02:39.026Z,2.38
2019-05-13T14:04:33.074Z,2.26
2019-05-13T14:07:07.120Z,2.38
2019-05-13T14:09:17.681Z,2.31
2019-05-13T14:11:02.047Z,2.2
2019-05-13T14:12:43.401Z,2.06
2019-05-13T14:14:24.844Z,2.25
2019-05-13T14:16:05.210Z,2.21
2019-05-13T14:18:12.354Z,2.41
2019-05-13T14:19:54.084Z,2.15
2019-05-13T14:21:35.727Z,2.2
2019-05-13T14:23:16.022Z,2.18
2019-05-13T14:24:55.496Z,2.18
2019-05-13T14:26:36.424Z,2.38
2019-05-13T14:28:24.558Z,2.35
2019-05-13T14:31:44.956Z,2.27
2019-05-13T14:33:24.430Z,2.12
2019-05-13T14:35:12.185Z,2.26
2019-05-13T14:36:53.513Z,2.28
2019-05-13T14:38:36.208Z,2.19
2019-05-13T14:40:15.740Z,2.47
2019-05-13T14:41:55.664Z,2.31
2019-05-13T14:43:35.301Z,2.56
2019-05-13T14:45:15.910Z,2.41
2019-05-13T14:47:00.978Z,2.36
2019-05-13T14:48:43.271Z,2.52
2019-05-13T14:50:24.791Z,2.51
2019-05-13T14:52:04.150Z,2.42
2019-05-13T14:53:44.919Z,2.35
2019-05-13T14:57:05.888Z,2.4
2019-05-13T14:58:52.001Z,2.42
2019-05-13T15:00:34.319Z,2.42
2019-05-13T15:02:15.427Z,2.67
2019-05-13T15:03:55.557Z,2.41
2019-05-13T15:05:35.227Z,2.5
2019-05-13T15:07:15.610Z,2.71
2019-05-13T15:08:55.528Z,2.5
2019-05-13T15:10:35.019Z,2.6
2019-05-13T15:12:14.735Z,2.58
2019-05-13T15:15:35.088Z,2.47
2019-05-13T15:17:16.154Z,2.58
2019-05-13T15:18:56.162Z,2.6
2019-05-13T15:20:36.649Z,2.66
2019-05-13T15:22:19.357Z,2.64
2019-05-13T15:24:02.189Z,2.54
2019-05-13T15:25:43.615Z,2.65
2019-05-13T15:27:25.587Z,2.83
2019-05-13T15:29:08.297Z,2.64
2019-05-13T15:30:48.470Z,2.52
2019-05-13T15:32:31.893Z,2.55
2019-05-13T15:34:12.113Z,2.57
2019-05-13T15:35:53.731Z,2.51
2019-05-13T15:37:35.499Z,2.54
2019-05-13T15:39:15.511Z,2.64
2019-05-13T15:40:55.753Z,4.26
2019-05-13T15:42:35.533Z,2.48
2019-05-13T15:44:21.943Z,2.66
2019-05-13T15:47:45.144Z,2.6
2019-05-13T15:49:25.412Z,2.47
2019-05-13T15:51:05.678Z,2.43
2019-05-13T15:54:36.578Z,2.44
2019-05-13T15:56:16.405Z,2.46
2019-05-13T15:57:55.967Z,2.5
2019-05-13T15:59:35.692Z,2.58
2019-05-13T16:01:16.259Z,2.45
2019-05-13T16:02:55.741Z,2.54
2019-05-13T16:04:57.894Z,2.47
2019-05-13T16:06:48.304Z,2.71
2019-05-13T16:08:31.759Z,2.47
2019-05-13T16:10:13.149Z,2.46
2019-05-13T16:13:38.458Z,2.53
2019-05-13T16:15:21.686Z,2.38
2019-05-13T16:17:01.980Z,2.29
2019-05-13T16:18:43.632Z,2.52
2019-05-13T16:20:24.943Z,2.5
2019-05-13T16:22:04.971Z,2.62
2019-05-13T16:23:46.206Z,2.4
2019-05-13T16:25:25.741Z,2.46
2019-05-13T16:27:27.082Z,2.5
2019-05-13T16:29:16.082Z,2.53
2019-05-13T16:30:55.694Z,2.58
2019-05-13T16:32:35.337Z,2.44
2019-05-13T16:34:17.037Z,2.4
2019-05-13T16:35:56.625Z,3.06
2019-05-13T16:37:36.124Z,2.6
2019-05-13T16:39:25.045Z,2.56
2019-05-13T16:41:05.267Z,2.37
2019-05-13T16:42:45.668Z,2.35
2019-05-13T16:44:25.895Z,2.24
2019-05-13T16:46:08.958Z,2.45
2019-05-13T16:48:07.152Z,2.54
2019-05-13T16:49:46.664Z,2.51
2019-05-13T16:51:26.169Z,2.22
2019-05-13T16:53:05.664Z,2.47
2019-05-13T16:54:45.981Z,2.49
2019-05-13T16:56:35.239Z,2.55
2019-05-13T17:00:02.388Z,2.54
2019-05-13T17:01:43.807Z,2.42
2019-05-13T17:03:24.480Z,2.33
2019-05-13T17:05:04.691Z,2.39
2019-05-13T17:06:45.053Z,2.6
2019-05-13T17:08:24.534Z,2.41
2019-05-13T17:10:06.761Z,2.49
2019-05-13T17:11:46.144Z,2.36
2019-05-13T17:13:25.628Z,2.57
2019-05-13T17:15:05.135Z,2.36
2019-05-13T17:16:44.835Z,2.44
2019-05-13T17:18:25.418Z,2.49
2019-05-13T17:20:05.731Z,2.37
2019-05-13T17:21:45.205Z,2.31
2019-05-13T17:23:24.946Z,2.21
2019-05-13T17:26:52.215Z,2.41
2019-05-13T17:28:36.002Z,2.22
2019-05-13T17:30:15.495Z,2.34
2019-05-13T17:31:55.150Z,2.64
2019-05-13T17:33:35.361Z,2.47
2019-05-13T17:35:18.222Z,2.51
2019-05-13T17:37:02.317Z,2.37
2019-05-13T17:38:42.147Z,2.41
2019-05-13T17:40:24.012Z,2.38
2019-05-13T17:42:04.693Z,2.55
2019-05-13T17:43:44.599Z,2.35
2019-05-13T17:45:25.107Z,2.4
2019-05-13T17:47:05.458Z,2.29
2019-05-13T17:48:44.978Z,2.23
2019-05-13T17:50:25.604Z,2.23
2019-05-13T17:52:05.843Z,2.28
2019-05-13T17:53:45.455Z,2.37
2019-05-13T17:55:25.627Z,2.47
2019-05-13T17:57:05.442Z,2.61
2019-05-13T17:58:45.418Z,2.64
2019-05-13T18:00:25.036Z,2.54
2019-05-13T18:02:08.318Z,2.47
2019-05-13T18:03:57.620Z,2.4
2019-05-13T18:05:43.886Z,2.35
2019-05-13T18:07:32.071Z,2.33
2019-05-13T18:09:22.292Z,2.22
2019-05-13T18:11:11.351Z,2.27
2019-05-13T18:12:58.592Z,2.3
2019-05-13T18:14:45.064Z,2.41
2019-05-13T18:16:32.203Z,2.21
2019-05-13T18:18:15.491Z,2.04
2019-05-13T18:19:54.943Z,2.38
2019-05-13T18:21:35.331Z,2.28
2019-05-13T18:23:15.490Z,2.15
2019-05-13T18:24:55.313Z,2.14
2019-05-13T18:26:35.377Z,2.54
2019-05-13T18:28:32.739Z,2.18
2019-05-13T18:30:14.735Z,2.29
2019-05-13T18:31:55.285Z,2.24
2019-05-13T18:33:35.352Z,2.16
2019-05-13T18:35:15.582Z,2.36
2019-05-13T18:36:57.574Z,2.21
2019-05-13T18:38:37.421Z,2.35
2019-05-13T18:40:16.912Z,2.36
2019-05-13T18:41:56.302Z,2.4
2019-05-13T18:43:35.800Z,2.31
2019-05-13T18:45:15.261Z,2.38
2019-05-13T18:48:36.420Z,2.42
2019-05-13T18:50:15.932Z,2.41
2019-05-13T18:51:55.469Z,2.29
2019-05-13T18:53:35.733Z,2.32
2019-05-13T18:55:15.842Z,2.28
2019-05-13T18:56:55.484Z,2.23
2019-05-13T18:58:34.461Z,2.35
2019-05-13T19:00:14.549Z,2.23
2019-05-13T19:01:56.226Z,2.22
2019-05-13T19:03:35.773Z,2.27
2019-05-13T19:05:14.691Z,2.35
2019-05-13T19:06:54.432Z,2.3
2019-05-13T19:10:15.377Z,2.5
2019-05-13T19:11:56.072Z,2.35
2019-05-13T19:13:35.945Z,2.83
2019-05-13T19:15:15.453Z,3.4
2019-05-13T19:16:54.895Z,3.38
2019-05-13T19:18:35.296Z,3.35
2019-05-13T19:20:15.103Z,3.12
2019-05-13T19:21:54.572Z,2.94
2019-05-13T19:23:34.829Z,2.92
2019-05-13T19:25:15.322Z,3.3
2019-05-13T19:26:55.465Z,3.38
2019-05-13T19:28:35.332Z,3.53
2019-05-13T19:30:15.494Z,3.8
2019-05-13T19:31:54.925Z,4.99
2019-05-13T19:33:34.362Z,5.57
2019-05-13T19:35:15.323Z,5.02
2019-05-13T19:36:54.916Z,4.08
2019-05-13T19:38:35.199Z,3.96
2019-05-13T19:40:16.326Z,3.82
2019-05-13T19:41:55.772Z,3.83
2019-05-13T19:43:35.216Z,3.81
2019-05-13T19:45:14.708Z,3.73
2019-05-13T19:46:55.264Z,4.05
2019-05-13T19:48:35.323Z,3.9
2019-05-13T19:50:14.728Z,3.86
2019-05-13T19:51:55.512Z,4.24
2019-05-13T19:53:35.376Z,4.78
2019-05-13T19:55:15.495Z,5.08
2019-05-13T19:56:55.400Z,5.72
2019-05-13T19:58:35.239Z,5.99
2019-05-13T20:00:17.518Z,5.79
2019-05-13T20:01:58.616Z,6.83
2019-05-13T20:03:42.026Z,6.01
2019-05-13T20:05:26.250Z,5.58
2019-05-13T20:07:05.610Z,6.22
2019-05-13T20:08:45.108Z,5.41
2019-05-13T20:10:24.619Z,4.7
2019-05-13T20:12:04.871Z,4.32
2019-05-13T20:15:25.339Z,3.14
2019-05-13T20:17:04.341Z,2.6
2019-05-13T20:18:44.793Z,2.6
2019-05-13T20:20:24.037Z,2.46
2019-05-13T20:22:05.681Z,2.41
2019-05-13T20:23:45.422Z,2.55
2019-05-13T20:25:25.215Z,2.54
2019-05-13T20:27:04.966Z,2.36
2019-05-13T20:28:45.327Z,2.44
2019-05-13T20:30:25.274Z,2.45
2019-05-13T20:32:04.710Z,2.24
2019-05-13T20:33:46.263Z,2.34
2019-05-13T20:35:25.672Z,2.34
2019-05-13T20:38:48.195Z,2.51
2019-05-13T20:40:31.748Z,2.45
2019-05-13T20:42:12.422Z,2.45
2019-05-13T20:43:55.905Z,2.46
2019-05-13T20:45:35.346Z,2.32
2019-05-13T20:47:14.747Z,2.19
2019-05-13T20:48:55.306Z,2.42
2019-05-13T20:50:34.528Z,2.29
2019-05-13T20:52:18.492Z,2.3
2019-05-13T20:54:02.197Z,2.88
2019-05-13T20:55:43.430Z,2.63
2019-05-13T20:57:27.656Z,2.52
2019-05-13T20:59:07.274Z,2.56
2019-05-13T21:00:46.639Z,2.4
2019-05-13T21:02:26.071Z,2.76
2019-05-13T21:04:05.461Z,2.76
2019-05-13T21:05:45.077Z,2.45
2019-05-13T21:07:25.097Z,2.6
2019-05-13T21:09:05.002Z,2.67
2019-05-13T21:10:45.372Z,2.65
2019-05-13T21:12:25.338Z,2.77
2019-05-13T21:14:04.901Z,2.66
2019-05-13T21:15:45.864Z,2.51
2019-05-13T21:17:25.657Z,2.77
2019-05-13T21:19:05.261Z,2.73
2019-05-13T21:20:45.098Z,2.6
2019-05-13T21:22:25.095Z,2.62
2019-05-13T21:24:04.953Z,2.57
2019-05-13T21:25:45.190Z,2.58
2019-05-13T21:27:24.832Z,2.78
2019-05-13T21:29:04.983Z,2.61
2019-05-13T21:30:45.462Z,2.81
2019-05-13T21:32:24.985Z,3.05
2019-05-13T21:34:04.831Z,3.18
2019-05-13T21:35:45.362Z,2.89
2019-05-13T21:37:25.559Z,3.15
2019-05-13T21:39:05.363Z,2.96
2019-05-13T21:40:56.731Z,3.17
2019-05-13T21:42:36.349Z,3.21
2019-05-13T21:44:15.827Z,3.26
2019-05-13T21:45:55.887Z,2.95
2019-05-13T21:47:35.694Z,2.85
2019-05-13T21:49:17.337Z,3.03
2019-05-13T21:50:59.698Z,2.75
2019-05-13T21:52:41.712Z,3.1
2019-05-13T21:54:21.695Z,3.06
2019-05-13T21:56:03.972Z,2.95
2019-05-13T21:57:44.890Z,2.91
2019-05-13T22:01:05.219Z,3.13
2019-05-13T22:02:44.805Z,2.96
2019-05-13T22:04:24.898Z,3.19
2019-05-13T22:06:05.636Z,3.04
2019-05-13T22:07:45.946Z,3.1
2019-05-13T22:09:25.590Z,3.21
2019-05-13T22:11:05.253Z,3.16
2019-05-13T22:12:45.956Z,3.16
2019-05-13T22:14:25.553Z,3.14
2019-05-13T22:16:05.320Z,3.31
2019-05-13T22:17:45.730Z,3.36
2019-05-13T22:19:25.764Z,3.09
2019-05-13T22:21:05.178Z,3.22
2019-05-13T22:22:44.910Z,3.28
2019-05-13T22:24:25.891Z,3.08
2019-05-13T22:26:05.832Z,3.09
2019-05-13T22:27:45.481Z,2.97
2019-05-13T22:29:26.748Z,3.01
2019-05-13T22:31:06.351Z,3.11
2019-05-13T22:32:46.083Z,2.93
2019-05-13T22:34:25.550Z,2.89
2019-05-13T22:36:05.266Z,3.17
2019-05-13T22:37:44.808Z,3.07
2019-05-13T22:39:25.389Z,2.97
2019-05-13T22:41:04.820Z,3.07
2019-05-13T22:42:44.851Z,3.28
2019-05-13T22:44:25.228Z,3.03
2019-05-13T22:46:04.660Z,3.34
2019-05-13T22:47:45.115Z,3.12
2019-05-13T22:49:25.447Z,3.38
2019-05-13T22:51:04.891Z,3.28
2019-05-13T22:52:45.201Z,3.33
2019-05-13T22:54:25.447Z,3.34
2019-05-13T22:56:04.760Z,3.4
2019-05-13T22:57:45.254Z,3.34
2019-05-13T22:59:24.219Z,3.4
2019-05-13T23:02:45.681Z,3.52
2019-05-13T23:04:25.166Z,3.25
2019-05-13T23:06:04.977Z,3.5
2019-05-13T23:07:44.399Z,3.42
2019-05-13T23:09:25.046Z,3.39
2019-05-13T23:11:05.388Z,3.34
2019-05-13T23:12:45.405Z,3.26
2019-05-13T23:14:25.436Z,3.27
2019-05-13T23:16:05.857Z,3.41
2019-05-13T23:17:46.980Z,3.06
2019-05-13T23:19:32.044Z,3.29
2019-05-13T23:21:13.217Z,3.16
2019-05-13T23:22:55.060Z,3.22
2019-05-13T23:24:34.607Z,3.14
2019-05-13T23:26:14.641Z,3.25
2019-05-13T23:27:54.657Z,3.24
2019-05-13T23:29:35.259Z,3.28
2019-05-13T23:31:15.779Z,3.29
2019-05-13T23:32:55.208Z,3.43
2019-05-13T23:34:35.342Z,3.06
2019-05-13T23:36:15.292Z,3
2019-05-13T23:37:54.717Z,2.97
2019-05-13T23:39:35.458Z,3.25
2019-05-13T23:41:14.892Z,3.09
2019-05-13T23:42:55.132Z,3.06
2019-05-13T23:44:35.509Z,3.25
2019-05-13T23:46:15.218Z,2.98
2019-05-13T23:47:54.708Z,3.15
2019-05-13T23:49:34.975Z,2.94
2019-05-13T23:51:16.323Z,3.17
2019-05-13T23:52:56.694Z,3.18
2019-05-13T23:54:36.101Z,3.26
2019-05-13T23:56:15.595Z,3.42
2019-05-13T23:57:55.790Z,3.12
2019-05-13T23:59:35.264Z,3.28
